Terminal Aerodrome Forecast
Issued by NWS Quad Cities IA IL

Home | Current Version | Previous Version | Text Only | Print | Product List | Glossary On
Versions: 1 2 3 4 5 6 7 8 9 10 11 12 13 14 15 16 17 18
608
FTUS43 KDVN 180744 AAA
TAFMLI
TAF AMD
KMLI 180744Z 1808/1906 04005KT 1 1/2SM BR OVC004
     FM181000 35014KT 1SM -RA BR OVC006
     FM181500 33016G26KT 3/4SM -RASN BR OVC012
     FM181900 31017G27KT P6SM BKN025
     FM182200 30018G28KT P6SM SKC=

USA.gov is the U.S. government's official web portal to all federal, state and local government web resources and services.